createdAt,value
2023-05-12T00:03:55.260Z,62.71
2023-05-12T00:07:58.346Z,62.96
2023-05-12T00:12:03.794Z,63.27
2023-05-12T00:16:07.296Z,63.40
2023-05-12T00:20:11.491Z,63.29
2023-05-12T00:24:14.953Z,63.67
2023-05-12T00:28:19.862Z,63.73
2023-05-12T00:32:23.142Z,64.05
2023-05-12T00:36:26.402Z,64.29
2023-05-12T00:40:29.304Z,64.29
2023-05-12T00:44:33.571Z,64.56
2023-05-12T00:48:37.244Z,64.73
2023-05-12T00:52:40.204Z,65.19
2023-05-12T00:56:43.692Z,65.29
2023-05-12T01:00:48.155Z,65.49
2023-05-12T01:04:51.677Z,65.61
2023-05-12T01:08:55.450Z,65.59
2023-05-12T01:12:59.048Z,66.20
2023-05-12T01:17:08.479Z,66.16
2023-05-12T01:21:12.442Z,66.36
2023-05-12T01:25:16.715Z,66.69
2023-05-12T01:29:22.887Z,67.21
2023-05-12T01:33:26.718Z,67.32
2023-05-12T01:37:29.686Z,67.83
2023-05-12T01:41:33.350Z,68.12
2023-05-12T01:45:38.660Z,67.92
2023-05-12T01:49:41.671Z,68.95
2023-05-12T01:53:49.066Z,68.89
2023-05-12T01:57:52.086Z,69.22
2023-05-12T02:01:57.355Z,69.65
2023-05-12T02:06:06.298Z,70.04
2023-05-12T02:10:10.466Z,70.21
2023-05-12T02:14:13.604Z,70.68
2023-05-12T02:18:20.491Z,70.99
2023-05-12T02:22:23.921Z,71.25
2023-05-12T02:26:26.945Z,71.51
2023-05-12T02:30:30.856Z,71.63
2023-05-12T02:34:35.307Z,72.12
2023-05-12T02:38:39.949Z,72.25
2023-05-12T02:42:43.586Z,72.60
2023-05-12T02:46:46.565Z,72.58
2023-05-12T02:50:50.930Z,73.08
2023-05-12T02:54:54.104Z,73.10
2023-05-12T02:58:57.101Z,73.34
2023-05-12T03:03:00.086Z,73.37
2023-05-12T03:07:05.744Z,73.62
2023-05-12T03:11:08.927Z,73.64
2023-05-12T03:15:12.640Z,73.92
2023-05-12T03:19:15.627Z,73.82
2023-05-12T03:23:20.044Z,74.29
2023-05-12T03:27:23.399Z,74.42
2023-05-12T03:31:26.869Z,74.63
2023-05-12T03:35:30.959Z,74.94
2023-05-12T03:39:38.867Z,74.85
2023-05-12T03:43:42.035Z,75.25
2023-05-12T03:47:45.095Z,75.19
2023-05-12T03:51:48.236Z,75.17
2023-05-12T03:55:52.525Z,75.17
2023-05-12T03:59:56.103Z,75.41
2023-05-12T04:03:59.147Z,75.30
2023-05-12T04:08:02.191Z,75.63
2023-05-12T04:12:07.759Z,75.78
2023-05-12T04:16:10.763Z,76.04
2023-05-12T04:20:16.576Z,75.96
2023-05-12T04:24:19.527Z,76.59
2023-05-12T04:28:24.192Z,76.67
2023-05-12T04:32:27.178Z,76.42
2023-05-12T04:36:30.884Z,76.87
2023-05-12T04:40:35.113Z,77.00
2023-05-12T04:44:40.873Z,77.15
2023-05-12T04:48:45.327Z,76.89
2023-05-12T04:52:48.464Z,77.33
2023-05-12T04:56:51.598Z,77.33
2023-05-12T05:00:56.174Z,77.23
2023-05-12T05:04:59.212Z,76.96
2023-05-12T05:09:02.359Z,77.14
2023-05-12T05:13:06.240Z,77.38
2023-05-12T05:17:12.210Z,77.20
2023-05-12T05:21:16.259Z,77.25
2023-05-12T05:25:20.451Z,76.99
2023-05-12T05:29:26.543Z,77.46
2023-05-12T05:33:31.316Z,77.67
2023-05-12T05:37:34.574Z,77.52
2023-05-12T05:41:37.758Z,77.60
2023-05-12T05:45:40.823Z,77.80
2023-05-12T05:49:45.769Z,78.01
2023-05-12T05:53:49.505Z,77.80
2023-05-12T05:57:53.958Z,78.16
2023-05-12T06:01:57.069Z,77.87
2023-05-12T06:06:01.508Z,77.93
2023-05-12T06:10:06.122Z,78.46
2023-05-12T06:14:10.054Z,77.94
2023-05-12T06:18:12.974Z,78.00
2023-05-12T06:22:17.403Z,78.37
2023-05-12T06:26:22.067Z,78.58
2023-05-12T06:30:25.729Z,79.00
2023-05-12T06:34:30.820Z,79.15
2023-05-12T06:38:35.429Z,79.36
2023-05-12T06:42:38.408Z,79.01
2023-05-12T06:46:45.520Z,79.30
2023-05-12T06:50:48.446Z,79.45
2023-05-12T06:54:52.918Z,79.63
2023-05-12T06:59:00.912Z,79.28
2023-05-12T07:03:03.942Z,79.32
2023-05-12T07:07:21.708Z,79.39
2023-05-12T07:11:26.022Z,79.62
2023-05-12T07:15:31.201Z,80.21
2023-05-12T07:19:35.552Z,79.61
2023-05-12T07:23:39.139Z,79.81
2023-05-12T07:27:43.394Z,79.51
2023-05-12T07:31:46.506Z,79.70
2023-05-12T07:35:49.543Z,79.58
2023-05-12T07:39:52.506Z,79.64
2023-05-12T07:43:56.827Z,79.53
2023-05-12T07:47:59.948Z,79.39
2023-05-12T07:52:03.088Z,79.42
2023-05-12T07:56:08.137Z,79.79
2023-05-12T08:00:14.387Z,79.58
2023-05-12T08:04:17.498Z,80.09
2023-05-12T08:08:20.439Z,80.37
2023-05-12T08:12:23.319Z,80.19
2023-05-12T08:16:27.836Z,80.00
2023-05-12T08:20:31.542Z,80.23
2023-05-12T08:24:34.480Z,79.85
2023-05-12T08:28:40.288Z,79.97
2023-05-12T08:32:44.631Z,80.24
2023-05-12T08:36:47.676Z,79.88
2023-05-12T08:41:03.206Z,79.89
2023-05-12T08:45:08.211Z,79.97
2023-05-12T08:49:16.424Z,79.95
2023-05-12T08:53:23.237Z,80.01
2023-05-12T08:57:28.837Z,79.88
2023-05-12T09:01:36.729Z,79.90
2023-05-12T09:05:42.568Z,79.68
2023-05-12T09:09:48.117Z,79.28
2023-05-12T09:13:55.783Z,79.42
2023-05-12T09:17:58.877Z,79.65
2023-05-12T09:22:03.195Z,78.88
2023-05-12T09:26:06.839Z,79.34
2023-05-12T09:30:30.477Z,79.48
2023-05-12T09:34:35.766Z,78.90
2023-05-12T09:38:40.321Z,78.94
2023-05-12T09:42:43.662Z,78.81
2023-05-12T09:46:47.781Z,79.07
2023-05-12T09:50:55.310Z,78.95
2023-05-12T09:55:09.717Z,79.72
2023-05-12T09:59:29.638Z,79.25
2023-05-12T10:03:34.742Z,79.13
2023-05-12T10:07:38.330Z,79.19
2023-05-12T10:11:44.264Z,78.71
2023-05-12T10:15:49.456Z,78.74
2023-05-12T10:19:53.882Z,78.26
2023-05-12T10:23:58.063Z,77.48
2023-05-12T10:28:04.948Z,77.47
2023-05-12T10:32:09.684Z,78.58
2023-05-12T10:36:19.889Z,77.62
2023-05-12T10:40:28.018Z,77.47
2023-05-12T10:44:32.375Z,77.61
2023-05-12T10:48:35.605Z,77.81
2023-05-12T10:52:38.678Z,77.21
2023-05-12T10:56:46.130Z,77.66
2023-05-12T11:00:53.767Z,76.46
2023-05-12T11:04:59.155Z,76.94
2023-05-12T11:09:03.268Z,77.37
2023-05-12T11:13:06.412Z,76.80
2023-05-12T11:17:11.498Z,76.85
2023-05-12T11:21:14.644Z,77.08
2023-05-12T11:25:18.544Z,77.04
2023-05-12T11:29:22.072Z,76.31
2023-05-12T11:33:26.348Z,76.34
2023-05-12T11:37:29.369Z,75.84
2023-05-12T11:41:32.428Z,75.46
2023-05-12T11:45:35.917Z,76.05
2023-05-12T11:49:49.556Z,75.79
2023-05-12T11:53:53.815Z,75.84
2023-05-12T11:58:01.910Z,75.01
2023-05-12T12:02:05.279Z,75.17
2023-05-12T12:06:10.861Z,75.39
2023-05-12T12:10:14.969Z,75.59
2023-05-12T12:14:17.885Z,75.85
2023-05-12T12:18:21.402Z,76.22
2023-05-12T12:22:25.854Z,77.42
2023-05-12T12:26:28.772Z,76.70
2023-05-12T12:30:31.771Z,76.74
2023-05-12T12:34:34.651Z,76.69
2023-05-12T12:38:39.026Z,76.08
2023-05-12T12:42:41.959Z,76.71
2023-05-12T12:46:44.880Z,76.21
2023-05-12T12:50:48.493Z,76.21
2023-05-12T12:54:53.136Z,76.25
2023-05-12T12:58:56.640Z,76.55
2023-05-12T13:03:00.687Z,76.96
2023-05-12T13:07:04.009Z,76.96
2023-05-12T13:11:08.908Z,77.06
2023-05-12T13:15:12.730Z,77.26
2023-05-12T13:19:15.678Z,77.09
2023-05-12T13:23:18.567Z,77.21
2023-05-12T13:27:22.917Z,76.32
2023-05-12T13:31:26.139Z,77.00
2023-05-12T13:35:29.150Z,77.28
2023-05-12T13:39:32.114Z,77.25
2023-05-12T13:43:36.525Z,77.35
2023-05-12T13:47:39.553Z,76.57
2023-05-12T13:51:42.634Z,76.45
2023-05-12T13:55:45.696Z,76.84
2023-05-12T13:59:50.479Z,77.18
2023-05-12T14:03:53.450Z,76.93
2023-05-12T14:07:56.764Z,76.76
2023-05-12T14:12:00.159Z,76.63
2023-05-12T14:16:04.749Z,75.90
2023-05-12T14:20:09.366Z,76.08
2023-05-12T14:24:12.297Z,75.88
2023-05-12T14:28:16.780Z,76.01
2023-05-12T14:32:21.144Z,76.14
2023-05-12T14:36:24.061Z,75.89
2023-05-12T14:40:27.249Z,75.82
2023-05-12T14:44:30.160Z,75.96
2023-05-12T14:48:34.453Z,75.80
2023-05-12T14:52:39.128Z,75.80
2023-05-12T14:56:42.950Z,75.56
2023-05-12T15:00:47.336Z,75.23
2023-05-12T15:04:51.757Z,75.29
2023-05-12T15:08:57.407Z,75.41
2023-05-12T15:13:00.307Z,74.61
2023-05-12T15:17:03.242Z,73.86
2023-05-12T15:21:07.684Z,73.62
2023-05-12T15:25:11.575Z,73.72
2023-05-12T15:29:14.687Z,73.93
2023-05-12T15:33:21.417Z,74.04
2023-05-12T15:37:25.984Z,74.18
2023-05-12T15:41:28.883Z,74.01
2023-05-12T15:45:32.167Z,74.40
2023-05-12T15:49:35.073Z,74.09
2023-05-12T15:53:39.508Z,74.17
2023-05-12T15:57:42.690Z,73.93
2023-05-12T16:01:45.772Z,73.97
2023-05-12T16:05:48.911Z,73.89
2023-05-12T16:09:53.224Z,74.36
2023-05-12T16:13:57.048Z,74.52
2023-05-12T16:18:00.115Z,74.46
2023-05-12T16:22:03.252Z,74.39
2023-05-12T16:26:07.590Z,74.62
2023-05-12T16:30:13.260Z,74.61
2023-05-12T16:34:16.212Z,74.65
2023-05-12T16:38:19.116Z,75.20
2023-05-12T16:42:23.399Z,75.14
2023-05-12T16:46:26.492Z,75.29
2023-05-12T16:50:29.666Z,75.38
2023-05-12T16:54:33.075Z,75.65
2023-05-12T16:58:37.544Z,75.68
2023-05-12T17:02:40.953Z,75.43
2023-05-12T17:06:44.029Z,75.57
2023-05-12T17:10:46.967Z,75.40
2023-05-12T17:15:03.449Z,75.88
2023-05-12T17:19:23.137Z,75.93
2023-05-12T17:23:26.717Z,76.05
2023-05-12T17:27:29.700Z,76.10
2023-05-12T17:31:34.205Z,76.34
2023-05-12T17:35:37.389Z,76.10
2023-05-12T17:39:40.552Z,76.61
2023-05-12T17:43:43.632Z,76.58
2023-05-12T17:47:51.247Z,76.30
2023-05-12T17:51:55.043Z,76.43
2023-05-12T17:55:58.299Z,76.17
2023-05-12T18:00:05.698Z,76.39
2023-05-12T18:04:19.303Z,76.70
2023-05-12T18:08:22.696Z,76.50
2023-05-12T18:12:25.670Z,76.62
2023-05-12T18:16:29.612Z,76.36
2023-05-12T18:20:34.262Z,76.26
2023-05-12T18:24:37.510Z,76.93
2023-05-12T18:28:43.354Z,76.68
2023-05-12T18:32:46.328Z,76.91
2023-05-12T18:36:50.937Z,77.07
2023-05-12T18:40:54.027Z,77.17
2023-05-12T18:44:57.530Z,76.92
2023-05-12T18:49:00.634Z,77.16
2023-05-12T18:53:05.076Z,77.39
2023-05-12T18:57:08.251Z,77.65
2023-05-12T19:01:11.437Z,77.85
2023-05-12T19:05:14.471Z,77.99
2023-05-12T19:09:18.826Z,77.83
2023-05-12T19:13:21.755Z,77.87
2023-05-12T19:17:24.949Z,77.71
2023-05-12T19:21:32.380Z,78.29
2023-05-12T19:25:36.827Z,78.24
2023-05-12T19:29:39.879Z,78.66
2023-05-12T19:33:47.783Z,78.69
2023-05-12T19:37:50.768Z,78.60
2023-05-12T19:41:57.426Z,78.91
2023-05-12T19:46:01.578Z,78.79
2023-05-12T19:50:07.718Z,79.09
2023-05-12T19:54:10.908Z,79.22
2023-05-12T19:58:15.400Z,79.52
2023-05-12T20:02:18.756Z,79.32
2023-05-12T20:06:22.517Z,79.55
2023-05-12T20:10:25.387Z,80.01
2023-05-12T20:14:29.681Z,80.08
2023-05-12T20:18:32.895Z,79.74
2023-05-12T20:22:35.870Z,79.82
2023-05-12T20:26:38.805Z,80.19
2023-05-12T20:30:43.108Z,80.06
2023-05-12T20:34:46.185Z,80.03
2023-05-12T20:38:49.157Z,80.40
2023-05-12T20:42:52.581Z,80.61
2023-05-12T20:46:57.138Z,80.41
2023-05-12T20:51:00.293Z,80.20
2023-05-12T20:55:03.531Z,80.32
2023-05-12T20:59:06.585Z,80.14
2023-05-12T21:03:15.117Z,80.52
2023-05-12T21:07:18.251Z,80.64
2023-05-12T21:11:23.114Z,81.29
2023-05-12T21:15:27.001Z,80.76
2023-05-12T21:19:31.591Z,81.15
2023-05-12T21:23:36.325Z,81.14
2023-05-12T21:27:40.929Z,80.86
2023-05-12T21:31:43.995Z,81.58
2023-05-12T21:35:49.881Z,81.62
2023-05-12T21:39:52.985Z,81.68
2023-05-12T21:43:56.015Z,81.55
2023-05-12T21:47:59.347Z,82.04
2023-05-12T21:52:04.119Z,82.29
2023-05-12T21:56:07.901Z,82.03
2023-05-12T22:00:12.850Z,82.24
2023-05-12T22:04:17.759Z,82.43
2023-05-12T22:08:22.093Z,82.37
2023-05-12T22:12:25.036Z,82.24
2023-05-12T22:16:40.658Z,82.69
2023-05-12T22:20:45.526Z,82.79
2023-05-12T22:24:49.891Z,83.29
2023-05-12T22:28:52.794Z,82.96
2023-05-12T22:32:56.307Z,83.17
2023-05-12T22:36:59.253Z,83.65
2023-05-12T22:41:03.723Z,83.21
2023-05-12T22:45:07.558Z,84.07
2023-05-12T22:49:10.601Z,83.97
2023-05-12T22:53:13.512Z,83.92
2023-05-12T22:57:17.778Z,84.21
2023-05-12T23:01:20.744Z,83.93
2023-05-12T23:05:24.193Z,84.08
2023-05-12T23:09:27.154Z,84.18
2023-05-12T23:13:31.859Z,84.25
2023-05-12T23:17:34.927Z,84.24
2023-05-12T23:21:37.955Z,84.27
2023-05-12T23:25:42.536Z,84.81
2023-05-12T23:29:46.929Z,84.70
2023-05-12T23:33:50.035Z,84.67
2023-05-12T23:37:53.178Z,84.52
2023-05-12T23:41:57.343Z,84.57
2023-05-12T23:46:02.077Z,84.88
2023-05-12T23:50:05.896Z,84.44
2023-05-12T23:54:09.586Z,84.55
2023-05-12T23:58:12.652Z,84.49
